sensor_id;sensor_type;location;lat;lon;timestamp;P1;durP1;ratioP1;P2;durP2;ratioP2
81154;SDS011;70631;50.436;7.826;2023-06-22T00:01:55;8.23;;;7.30;;
81154;SDS011;70631;50.436;7.826;2023-06-22T00:04:20;8.50;;;7.70;;
81154;SDS011;70631;50.436;7.826;2023-06-22T00:06:45;8.67;;;7.73;;
81154;SDS011;70631;50.436;7.826;2023-06-22T00:09:10;8.90;;;8.00;;
81154;SDS011;70631;50.436;7.826;2023-06-22T00:11:36;9.30;;;8.40;;
81154;SDS011;70631;50.436;7.826;2023-06-22T00:14:02;8.60;;;7.70;;
81154;SDS011;70631;50.436;7.826;2023-06-22T00:16:27;9.60;;;7.97;;
81154;SDS011;70631;50.436;7.826;2023-06-22T00:18:53;8.53;;;7.83;;
81154;SDS011;70631;50.436;7.826;2023-06-22T00:21:18;9.07;;;7.73;;
81154;SDS011;70631;50.436;7.826;2023-06-22T00:23:45;9.77;;;8.43;;
81154;SDS011;70631;50.436;7.826;2023-06-22T00:26:11;9.57;;;8.52;;
81154;SDS011;70631;50.436;7.826;2023-06-22T00:28:36;8.93;;;8.05;;
81154;SDS011;70631;50.436;7.826;2023-06-22T00:31:01;12.43;;;8.90;;
81154;SDS011;70631;50.436;7.826;2023-06-22T00:33:27;9.20;;;8.30;;
81154;SDS011;70631;50.436;7.826;2023-06-22T00:35:53;9.73;;;8.70;;
81154;SDS011;70631;50.436;7.826;2023-06-22T00:38:18;12.52;;;9.10;;
81154;SDS011;70631;50.436;7.826;2023-06-22T00:40:44;13.60;;;8.90;;
81154;SDS011;70631;50.436;7.826;2023-06-22T00:43:09;10.18;;;9.15;;
81154;SDS011;70631;50.436;7.826;2023-06-22T00:45:35;11.33;;;8.53;;
81154;SDS011;70631;50.436;7.826;2023-06-22T00:48:00;9.50;;;8.23;;
81154;SDS011;70631;50.436;7.826;2023-06-22T00:50:27;9.98;;;8.48;;
81154;SDS011;70631;50.436;7.826;2023-06-22T00:52:58;10.57;;;8.98;;
81154;SDS011;70631;50.436;7.826;2023-06-22T00:55:26;10.52;;;8.20;;
81154;SDS011;70631;50.436;7.826;2023-06-22T00:57:52;9.65;;;8.55;;
81154;SDS011;70631;50.436;7.826;2023-06-22T01:00:20;11.45;;;8.93;;
81154;SDS011;70631;50.436;7.826;2023-06-22T01:02:49;11.35;;;9.15;;
81154;SDS011;70631;50.436;7.826;2023-06-22T01:05:20;9.55;;;8.63;;
81154;SDS011;70631;50.436;7.826;2023-06-22T01:07:50;9.57;;;8.63;;
81154;SDS011;70631;50.436;7.826;2023-06-22T01:10:40;9.77;;;8.73;;
81154;SDS011;70631;50.436;7.826;2023-06-22T01:13:26;9.35;;;8.43;;
81154;SDS011;70631;50.436;7.826;2023-06-22T01:16:07;10.57;;;7.90;;
81154;SDS011;70631;50.436;7.826;2023-06-22T01:18:40;9.55;;;8.55;;
81154;SDS011;70631;50.436;7.826;2023-06-22T01:21:08;9.65;;;8.65;;
81154;SDS011;70631;50.436;7.826;2023-06-22T01:26:43;10.18;;;9.02;;
81154;SDS011;70631;50.436;7.826;2023-06-22T01:29:19;11.02;;;9.98;;
81154;SDS011;70631;50.436;7.826;2023-06-22T01:31:46;10.68;;;9.20;;
81154;SDS011;70631;50.436;7.826;2023-06-22T01:34:13;11.32;;;10.15;;
81154;SDS011;70631;50.436;7.826;2023-06-22T01:36:40;11.23;;;10.13;;
81154;SDS011;70631;50.436;7.826;2023-06-22T01:39:07;10.57;;;9.57;;
81154;SDS011;70631;50.436;7.826;2023-06-22T01:41:35;10.40;;;9.30;;
81154;SDS011;70631;50.436;7.826;2023-06-22T01:44:03;10.25;;;9.13;;
81154;SDS011;70631;50.436;7.826;2023-06-22T01:46:32;11.20;;;9.30;;
81154;SDS011;70631;50.436;7.826;2023-06-22T01:48:59;10.07;;;9.00;;
81154;SDS011;70631;50.436;7.826;2023-06-22T01:51:24;10.52;;;9.27;;
81154;SDS011;70631;50.436;7.826;2023-06-22T01:53:50;9.65;;;8.65;;
81154;SDS011;70631;50.436;7.826;2023-06-22T01:56:16;11.10;;;8.73;;
81154;SDS011;70631;50.436;7.826;2023-06-22T01:58:45;11.40;;;10.18;;
81154;SDS011;70631;50.436;7.826;2023-06-22T02:01:15;11.40;;;10.00;;
81154;SDS011;70631;50.436;7.826;2023-06-22T02:03:53;10.25;;;9.15;;
81154;SDS011;70631;50.436;7.826;2023-06-22T02:06:30;10.85;;;8.77;;
81154;SDS011;70631;50.436;7.826;2023-06-22T02:09:01;11.93;;;9.88;;
81154;SDS011;70631;50.436;7.826;2023-06-22T02:11:28;13.57;;;10.63;;
81154;SDS011;70631;50.436;7.826;2023-06-22T02:13:55;10.65;;;9.60;;
81154;SDS011;70631;50.436;7.826;2023-06-22T02:16:22;10.77;;;9.60;;
81154;SDS011;70631;50.436;7.826;2023-06-22T02:18:51;11.15;;;10.02;;
81154;SDS011;70631;50.436;7.826;2023-06-22T02:21:17;10.75;;;9.43;;
81154;SDS011;70631;50.436;7.826;2023-06-22T02:23:43;12.48;;;10.85;;
81154;SDS011;70631;50.436;7.826;2023-06-22T02:26:08;11.00;;;9.88;;
81154;SDS011;70631;50.436;7.826;2023-06-22T02:28:33;10.67;;;9.57;;
81154;SDS011;70631;50.436;7.826;2023-06-22T02:30:58;11.07;;;9.90;;
81154;SDS011;70631;50.436;7.826;2023-06-22T02:33:24;10.82;;;9.05;;
81154;SDS011;70631;50.436;7.826;2023-06-22T02:35:49;11.03;;;9.60;;
81154;SDS011;70631;50.436;7.826;2023-06-22T02:38:15;9.70;;;8.70;;
81154;SDS011;70631;50.436;7.826;2023-06-22T02:40:40;13.38;;;9.60;;
81154;SDS011;70631;50.436;7.826;2023-06-22T02:43:05;11.20;;;10.10;;
81154;SDS011;70631;50.436;7.826;2023-06-22T02:45:31;11.43;;;10.23;;
81154;SDS011;70631;50.436;7.826;2023-06-22T02:47:56;11.63;;;9.97;;
81154;SDS011;70631;50.436;7.826;2023-06-22T02:50:21;12.38;;;10.15;;
81154;SDS011;70631;50.436;7.826;2023-06-22T02:52:46;13.10;;;10.83;;
81154;SDS011;70631;50.436;7.826;2023-06-22T02:55:12;12.23;;;9.77;;
81154;SDS011;70631;50.436;7.826;2023-06-22T02:57:37;10.87;;;9.77;;
81154;SDS011;70631;50.436;7.826;2023-06-22T03:00:03;10.77;;;9.67;;
81154;SDS011;70631;50.436;7.826;2023-06-22T03:02:41;11.35;;;10.23;;
81154;SDS011;70631;50.436;7.826;2023-06-22T03:05:06;11.45;;;10.27;;
81154;SDS011;70631;50.436;7.826;2023-06-22T03:07:39;12.02;;;10.82;;
81154;SDS011;70631;50.436;7.826;2023-06-22T03:10:05;10.88;;;9.70;;
81154;SDS011;70631;50.436;7.826;2023-06-22T03:12:31;12.30;;;10.77;;
81154;SDS011;70631;50.436;7.826;2023-06-22T03:14:56;11.93;;;10.63;;
81154;SDS011;70631;50.436;7.826;2023-06-22T03:17:21;12.27;;;10.07;;
81154;SDS011;70631;50.436;7.826;2023-06-22T03:19:47;11.77;;;10.53;;
81154;SDS011;70631;50.436;7.826;2023-06-22T03:22:12;10.93;;;9.80;;
81154;SDS011;70631;50.436;7.826;2023-06-22T03:24:37;11.23;;;10.07;;
81154;SDS011;70631;50.436;7.826;2023-06-22T03:27:04;13.68;;;9.90;;
81154;SDS011;70631;50.436;7.826;2023-06-22T03:29:30;12.40;;;10.70;;
81154;SDS011;70631;50.436;7.826;2023-06-22T03:31:56;14.27;;;10.55;;
81154;SDS011;70631;50.436;7.826;2023-06-22T03:34:21;12.40;;;9.57;;
81154;SDS011;70631;50.436;7.826;2023-06-22T03:36:46;11.73;;;10.37;;
81154;SDS011;70631;50.436;7.826;2023-06-22T03:39:11;11.37;;;10.13;;
81154;SDS011;70631;50.436;7.826;2023-06-22T03:41:37;13.73;;;10.32;;
81154;SDS011;70631;50.436;7.826;2023-06-22T03:44:02;15.93;;;10.70;;
81154;SDS011;70631;50.436;7.826;2023-06-22T03:46:27;13.65;;;10.43;;
81154;SDS011;70631;50.436;7.826;2023-06-22T03:48:53;14.00;;;11.05;;
81154;SDS011;70631;50.436;7.826;2023-06-22T03:51:18;11.87;;;10.67;;
81154;SDS011;70631;50.436;7.826;2023-06-22T03:53:43;11.43;;;10.23;;
81154;SDS011;70631;50.436;7.826;2023-06-22T03:56:08;12.57;;;10.57;;
81154;SDS011;70631;50.436;7.826;2023-06-22T03:58:34;12.77;;;10.40;;
81154;SDS011;70631;50.436;7.826;2023-06-22T04:01:01;11.55;;;10.00;;
81154;SDS011;70631;50.436;7.826;2023-06-22T04:03:26;12.63;;;10.60;;
81154;SDS011;70631;50.436;7.826;2023-06-22T04:05:52;12.40;;;11.20;;
81154;SDS011;70631;50.436;7.826;2023-06-22T04:08:17;10.67;;;9.63;;
81154;SDS011;70631;50.436;7.826;2023-06-22T04:10:43;11.88;;;10.57;;
81154;SDS011;70631;50.436;7.826;2023-06-22T04:13:08;11.65;;;10.02;;
81154;SDS011;70631;50.436;7.826;2023-06-22T04:15:33;12.70;;;10.00;;
81154;SDS011;70631;50.436;7.826;2023-06-22T04:17:59;10.60;;;9.07;;
81154;SDS011;70631;50.436;7.826;2023-06-22T04:20:24;15.57;;;10.93;;
81154;SDS011;70631;50.436;7.826;2023-06-22T04:22:53;10.88;;;9.77;;
81154;SDS011;70631;50.436;7.826;2023-06-22T04:25:19;12.90;;;10.45;;
81154;SDS011;70631;50.436;7.826;2023-06-22T04:27:44;11.32;;;10.00;;
81154;SDS011;70631;50.436;7.826;2023-06-22T04:30:10;11.70;;;10.23;;
81154;SDS011;70631;50.436;7.826;2023-06-22T04:32:37;9.70;;;8.70;;
81154;SDS011;70631;50.436;7.826;2023-06-22T04:35:03;10.75;;;9.73;;
81154;SDS011;70631;50.436;7.826;2023-06-22T04:37:30;10.98;;;9.95;;
81154;SDS011;70631;50.436;7.826;2023-06-22T04:39:56;11.10;;;9.98;;
81154;SDS011;70631;50.436;7.826;2023-06-22T04:42:21;11.30;;;10.13;;
81154;SDS011;70631;50.436;7.826;2023-06-22T04:44:46;14.53;;;11.10;;
81154;SDS011;70631;50.436;7.826;2023-06-22T04:47:11;12.13;;;10.83;;
81154;SDS011;70631;50.436;7.826;2023-06-22T04:49:37;11.70;;;10.50;;
81154;SDS011;70631;50.436;7.826;2023-06-22T04:52:03;13.27;;;10.82;;
81154;SDS011;70631;50.436;7.826;2023-06-22T04:54:30;11.88;;;10.68;;
81154;SDS011;70631;50.436;7.826;2023-06-22T04:56:59;11.18;;;10.00;;
81154;SDS011;70631;50.436;7.826;2023-06-22T04:59:26;11.63;;;10.45;;
81154;SDS011;70631;50.436;7.826;2023-06-22T05:01:59;14.75;;;10.95;;
81154;SDS011;70631;50.436;7.826;2023-06-22T05:04:26;12.18;;;10.98;;
81154;SDS011;70631;50.436;7.826;2023-06-22T05:06:53;11.93;;;9.80;;
81154;SDS011;70631;50.436;7.826;2023-06-22T05:09:19;12.65;;;10.00;;
81154;SDS011;70631;50.436;7.826;2023-06-22T05:11:45;14.07;;;10.90;;
81154;SDS011;70631;50.436;7.826;2023-06-22T05:14:11;12.10;;;10.65;;
81154;SDS011;70631;50.436;7.826;2023-06-22T05:16:36;12.00;;;10.35;;
81154;SDS011;70631;50.436;7.826;2023-06-22T05:19:02;11.63;;;10.48;;
81154;SDS011;70631;50.436;7.826;2023-06-22T05:21:28;11.50;;;10.30;;
81154;SDS011;70631;50.436;7.826;2023-06-22T05:23:55;12.73;;;9.77;;
81154;SDS011;70631;50.436;7.826;2023-06-22T05:26:25;10.05;;;8.93;;
81154;SDS011;70631;50.436;7.826;2023-06-22T05:28:51;10.55;;;9.45;;
81154;SDS011;70631;50.436;7.826;2023-06-22T05:31:17;13.13;;;10.13;;
81154;SDS011;70631;50.436;7.826;2023-06-22T05:33:44;13.52;;;10.02;;
81154;SDS011;70631;50.436;7.826;2023-06-22T05:36:10;12.73;;;9.85;;
81154;SDS011;70631;50.436;7.826;2023-06-22T05:38:37;10.43;;;9.30;;
81154;SDS011;70631;50.436;7.826;2023-06-22T05:41:03;10.98;;;9.13;;
81154;SDS011;70631;50.436;7.826;2023-06-22T05:43:29;11.13;;;9.32;;
81154;SDS011;70631;50.436;7.826;2023-06-22T05:45:55;10.75;;;9.52;;
81154;SDS011;70631;50.436;7.826;2023-06-22T05:48:20;10.90;;;9.90;;
81154;SDS011;70631;50.436;7.826;2023-06-22T05:50:46;10.52;;;9.45;;
81154;SDS011;70631;50.436;7.826;2023-06-22T05:53:11;10.57;;;9.57;;
81154;SDS011;70631;50.436;7.826;2023-06-22T05:55:36;11.20;;;10.10;;
81154;SDS011;70631;50.436;7.826;2023-06-22T05:58:02;10.93;;;9.83;;
81154;SDS011;70631;50.436;7.826;2023-06-22T06:00:28;10.57;;;9.57;;
81154;SDS011;70631;50.436;7.826;2023-06-22T06:02:54;10.57;;;9.57;;
81154;SDS011;70631;50.436;7.826;2023-06-22T06:05:19;11.87;;;9.80;;
81154;SDS011;70631;50.436;7.826;2023-06-22T06:07:45;12.47;;;9.93;;
81154;SDS011;70631;50.436;7.826;2023-06-22T06:10:11;9.85;;;8.93;;
81154;SDS011;70631;50.436;7.826;2023-06-22T06:12:36;10.40;;;9.35;;
81154;SDS011;70631;50.436;7.826;2023-06-22T06:15:02;10.68;;;8.70;;
81154;SDS011;70631;50.436;7.826;2023-06-22T06:17:28;10.00;;;9.05;;
81154;SDS011;70631;50.436;7.826;2023-06-22T06:19:53;10.07;;;9.10;;
81154;SDS011;70631;50.436;7.826;2023-06-22T06:22:18;9.33;;;8.43;;
81154;SDS011;70631;50.436;7.826;2023-06-22T06:24:45;10.25;;;8.60;;
81154;SDS011;70631;50.436;7.826;2023-06-22T06:27:12;11.50;;;9.65;;
81154;SDS011;70631;50.436;7.826;2023-06-22T06:29:37;10.90;;;9.18;;
81154;SDS011;70631;50.436;7.826;2023-06-22T06:32:03;11.43;;;9.70;;
81154;SDS011;70631;50.436;7.826;2023-06-22T06:34:28;10.98;;;9.93;;
81154;SDS011;70631;50.436;7.826;2023-06-22T06:36:54;13.77;;;9.27;;
81154;SDS011;70631;50.436;7.826;2023-06-22T06:39:19;10.27;;;9.27;;
81154;SDS011;70631;50.436;7.826;2023-06-22T06:41:45;10.05;;;9.15;;
81154;SDS011;70631;50.436;7.826;2023-06-22T06:44:10;9.88;;;8.88;;
81154;SDS011;70631;50.436;7.826;2023-06-22T06:46:36;9.43;;;8.73;;
81154;SDS011;70631;50.436;7.826;2023-06-22T06:49:01;10.43;;;8.73;;
81154;SDS011;70631;50.436;7.826;2023-06-22T06:51:27;8.83;;;8.03;;
81154;SDS011;70631;50.436;7.826;2023-06-22T06:53:52;9.17;;;8.37;;
81154;SDS011;70631;50.436;7.826;2023-06-22T06:56:17;9.63;;;8.73;;
81154;SDS011;70631;50.436;7.826;2023-06-22T06:58:42;9.77;;;8.77;;
81154;SDS011;70631;50.436;7.826;2023-06-22T07:01:10;8.68;;;7.88;;
81154;SDS011;70631;50.436;7.826;2023-06-22T07:03:35;9.48;;;8.57;;
81154;SDS011;70631;50.436;7.826;2023-06-22T07:06:00;9.03;;;8.23;;
81154;SDS011;70631;50.436;7.826;2023-06-22T07:08:25;11.47;;;8.57;;
81154;SDS011;70631;50.436;7.826;2023-06-22T07:10:52;10.77;;;8.77;;
81154;SDS011;70631;50.436;7.826;2023-06-22T07:13:17;9.32;;;8.52;;
81154;SDS011;70631;50.436;7.826;2023-06-22T07:15:43;8.85;;;7.95;;
81154;SDS011;70631;50.436;7.826;2023-06-22T07:18:08;10.03;;;8.00;;
81154;SDS011;70631;50.436;7.826;2023-06-22T07:20:33;10.40;;;8.13;;
81154;SDS011;70631;50.436;7.826;2023-06-22T07:22:59;10.40;;;8.40;;
81154;SDS011;70631;50.436;7.826;2023-06-22T07:25:24;9.50;;;8.60;;
81154;SDS011;70631;50.436;7.826;2023-06-22T07:28:06;8.67;;;7.77;;
81154;SDS011;70631;50.436;7.826;2023-06-22T07:30:32;9.20;;;8.30;;
81154;SDS011;70631;50.436;7.826;2023-06-22T07:32:58;8.80;;;7.90;;
81154;SDS011;70631;50.436;7.826;2023-06-22T07:35:28;9.13;;;8.32;;
81154;SDS011;70631;50.436;7.826;2023-06-22T07:37:53;10.57;;;8.25;;
81154;SDS011;70631;50.436;7.826;2023-06-22T07:40:18;8.67;;;7.87;;
81154;SDS011;70631;50.436;7.826;2023-06-22T07:42:44;10.73;;;9.27;;
81154;SDS011;70631;50.436;7.826;2023-06-22T07:45:09;11.17;;;8.07;;
81154;SDS011;70631;50.436;7.826;2023-06-22T07:47:34;8.77;;;7.63;;
81154;SDS011;70631;50.436;7.826;2023-06-22T07:50:00;9.25;;;8.32;;
81154;SDS011;70631;50.436;7.826;2023-06-22T07:52:26;8.93;;;8.02;;
81154;SDS011;70631;50.436;7.826;2023-06-22T07:54:52;9.50;;;8.65;;
81154;SDS011;70631;50.436;7.826;2023-06-22T07:57:18;9.53;;;8.63;;
81154;SDS011;70631;50.436;7.826;2023-06-22T07:59:43;9.65;;;8.85;;
81154;SDS011;70631;50.436;7.826;2023-06-22T08:02:09;9.02;;;8.25;;
81154;SDS011;70631;50.436;7.826;2023-06-22T08:04:34;8.50;;;7.65;;
81154;SDS011;70631;50.436;7.826;2023-06-22T08:07:00;8.90;;;8.07;;
81154;SDS011;70631;50.436;7.826;2023-06-22T08:09:27;9.40;;;7.97;;
81154;SDS011;70631;50.436;7.826;2023-06-22T08:11:54;10.82;;;8.27;;
81154;SDS011;70631;50.436;7.826;2023-06-22T08:14:21;8.73;;;7.82;;
81154;SDS011;70631;50.436;7.826;2023-06-22T08:16:46;9.10;;;8.20;;
81154;SDS011;70631;50.436;7.826;2023-06-22T08:19:12;8.93;;;8.05;;
81154;SDS011;70631;50.436;7.826;2023-06-22T08:21:37;8.98;;;8.07;;
81154;SDS011;70631;50.436;7.826;2023-06-22T08:24:03;8.45;;;7.65;;
81154;SDS011;70631;50.436;7.826;2023-06-22T08:26:28;8.75;;;7.95;;
81154;SDS011;70631;50.436;7.826;2023-06-22T08:28:53;9.83;;;7.57;;
81154;SDS011;70631;50.436;7.826;2023-06-22T08:31:19;9.25;;;8.45;;
81154;SDS011;70631;50.436;7.826;2023-06-22T08:33:44;9.43;;;7.80;;
81154;SDS011;70631;50.436;7.826;2023-06-22T08:36:13;8.20;;;7.57;;
81154;SDS011;70631;50.436;7.826;2023-06-22T08:38:38;9.18;;;8.30;;
81154;SDS011;70631;50.436;7.826;2023-06-22T08:41:03;9.60;;;8.65;;
81154;SDS011;70631;50.436;7.826;2023-06-22T08:43:29;8.70;;;8.00;;
81154;SDS011;70631;50.436;7.826;2023-06-22T08:45:54;9.70;;;8.67;;
81154;SDS011;70631;50.436;7.826;2023-06-22T08:48:19;11.43;;;8.07;;
81154;SDS011;70631;50.436;7.826;2023-06-22T08:50:44;8.37;;;7.67;;
81154;SDS011;70631;50.436;7.826;2023-06-22T08:53:10;10.77;;;8.33;;
81154;SDS011;70631;50.436;7.826;2023-06-22T08:55:35;9.73;;;8.30;;
81154;SDS011;70631;50.436;7.826;2023-06-22T08:58:00;9.67;;;8.77;;
81154;SDS011;70631;50.436;7.826;2023-06-22T09:00:26;9.37;;;8.47;;
81154;SDS011;70631;50.436;7.826;2023-06-22T09:02:52;9.23;;;8.32;;
81154;SDS011;70631;50.436;7.826;2023-06-22T09:05:17;9.83;;;8.30;;
81154;SDS011;70631;50.436;7.826;2023-06-22T09:07:43;8.85;;;7.95;;
81154;SDS011;70631;50.436;7.826;2023-06-22T09:10:08;8.57;;;7.73;;
81154;SDS011;70631;50.436;7.826;2023-06-22T09:12:34;9.57;;;8.63;;
81154;SDS011;70631;50.436;7.826;2023-06-22T09:14:59;10.15;;;9.00;;
81154;SDS011;70631;50.436;7.826;2023-06-22T09:17:26;8.30;;;7.63;;
81154;SDS011;70631;50.436;7.826;2023-06-22T09:19:52;8.93;;;8.07;;
81154;SDS011;70631;50.436;7.826;2023-06-22T09:22:18;10.43;;;9.43;;
81154;SDS011;70631;50.436;7.826;2023-06-22T09:24:43;9.30;;;8.43;;
81154;SDS011;70631;50.436;7.826;2023-06-22T09:27:08;9.53;;;8.63;;
81154;SDS011;70631;50.436;7.826;2023-06-22T09:29:34;9.57;;;8.67;;
81154;SDS011;70631;50.436;7.826;2023-06-22T09:31:59;11.57;;;9.03;;
81154;SDS011;70631;50.436;7.826;2023-06-22T09:34:25;9.75;;;8.85;;
81154;SDS011;70631;50.436;7.826;2023-06-22T09:36:51;9.35;;;8.40;;
81154;SDS011;70631;50.436;7.826;2023-06-22T09:39:17;9.50;;;8.57;;
81154;SDS011;70631;50.436;7.826;2023-06-22T09:41:43;9.38;;;8.57;;
81154;SDS011;70631;50.436;7.826;2023-06-22T09:44:08;9.33;;;8.43;;
81154;SDS011;70631;50.436;7.826;2023-06-22T09:46:33;8.83;;;8.07;;
81154;SDS011;70631;50.436;7.826;2023-06-22T09:48:59;9.37;;;8.40;;
81154;SDS011;70631;50.436;7.826;2023-06-22T09:51:24;9.03;;;8.30;;
81154;SDS011;70631;50.436;7.826;2023-06-22T09:53:49;9.93;;;9.13;;
81154;SDS011;70631;50.436;7.826;2023-06-22T09:56:15;10.98;;;9.13;;
81154;SDS011;70631;50.436;7.826;2023-06-22T09:58:41;9.88;;;9.00;;
81154;SDS011;70631;50.436;7.826;2023-06-22T10:01:07;9.55;;;8.57;;
81154;SDS011;70631;50.436;7.826;2023-06-22T10:03:33;9.85;;;8.80;;
81154;SDS011;70631;50.436;7.826;2023-06-22T10:05:58;9.03;;;8.13;;
81154;SDS011;70631;50.436;7.826;2023-06-22T10:08:23;11.03;;;9.10;;
81154;SDS011;70631;50.436;7.826;2023-06-22T10:10:48;9.97;;;8.83;;
81154;SDS011;70631;50.436;7.826;2023-06-22T10:13:14;10.10;;;9.20;;
81154;SDS011;70631;50.436;7.826;2023-06-22T10:15:39;10.43;;;9.25;;
81154;SDS011;70631;50.436;7.826;2023-06-22T10:18:05;9.57;;;8.60;;
81154;SDS011;70631;50.436;7.826;2023-06-22T10:20:31;10.37;;;9.37;;
81154;SDS011;70631;50.436;7.826;2023-06-22T10:22:56;9.77;;;8.88;;
81154;SDS011;70631;50.436;7.826;2023-06-22T10:25:21;9.37;;;8.47;;
81154;SDS011;70631;50.436;7.826;2023-06-22T10:27:47;9.93;;;9.02;;
81154;SDS011;70631;50.436;7.826;2023-06-22T10:30:12;13.07;;;10.30;;
81154;SDS011;70631;50.436;7.826;2023-06-22T10:32:39;10.07;;;8.95;;
81154;SDS011;70631;50.436;7.826;2023-06-22T10:35:05;10.30;;;8.57;;
81154;SDS011;70631;50.436;7.826;2023-06-22T10:37:31;10.10;;;8.52;;
81154;SDS011;70631;50.436;7.826;2023-06-22T10:39:56;10.33;;;9.27;;
81154;SDS011;70631;50.436;7.826;2023-06-22T10:42:21;10.07;;;9.18;;
81154;SDS011;70631;50.436;7.826;2023-06-22T10:44:47;11.57;;;9.63;;
81154;SDS011;70631;50.436;7.826;2023-06-22T10:47:12;11.60;;;10.13;;
81154;SDS011;70631;50.436;7.826;2023-06-22T10:49:38;11.70;;;10.50;;
81154;SDS011;70631;50.436;7.826;2023-06-22T10:52:04;10.73;;;9.07;;
81154;SDS011;70631;50.436;7.826;2023-06-22T10:54:32;10.85;;;8.93;;
81154;SDS011;70631;50.436;7.826;2023-06-22T10:56:58;9.63;;;8.65;;
81154;SDS011;70631;50.436;7.826;2023-06-22T10:59:24;10.45;;;9.40;;
81154;SDS011;70631;50.436;7.826;2023-06-22T11:01:50;9.73;;;8.75;;
81154;SDS011;70631;50.436;7.826;2023-06-22T11:04:16;9.57;;;8.65;;
81154;SDS011;70631;50.436;7.826;2023-06-22T11:06:42;10.32;;;9.25;;
81154;SDS011;70631;50.436;7.826;2023-06-22T11:09:08;9.57;;;8.50;;
81154;SDS011;70631;50.436;7.826;2023-06-22T11:11:33;12.53;;;9.27;;
81154;SDS011;70631;50.436;7.826;2023-06-22T11:13:58;9.70;;;8.30;;
81154;SDS011;70631;50.436;7.826;2023-06-22T11:16:23;8.63;;;7.73;;
81154;SDS011;70631;50.436;7.826;2023-06-22T11:18:49;8.07;;;7.37;;
81154;SDS011;70631;50.436;7.826;2023-06-22T11:21:14;9.07;;;8.17;;
81154;SDS011;70631;50.436;7.826;2023-06-22T11:23:39;7.67;;;6.97;;
81154;SDS011;70631;50.436;7.826;2023-06-22T11:26:04;8.17;;;6.87;;
81154;SDS011;70631;50.436;7.826;2023-06-22T11:28:30;8.17;;;7.47;;
81154;SDS011;70631;50.436;7.826;2023-06-22T11:30:55;8.60;;;7.80;;
81154;SDS011;70631;50.436;7.826;2023-06-22T11:33:20;8.93;;;7.77;;
81154;SDS011;70631;50.436;7.826;2023-06-22T11:35:45;8.13;;;7.27;;
81154;SDS011;70631;50.436;7.826;2023-06-22T11:38:11;10.00;;;7.83;;
81154;SDS011;70631;50.436;7.826;2023-06-22T11:40:36;8.60;;;7.80;;
81154;SDS011;70631;50.436;7.826;2023-06-22T11:43:01;8.03;;;7.23;;
81154;SDS011;70631;50.436;7.826;2023-06-22T11:45:26;8.50;;;7.70;;
81154;SDS011;70631;50.436;7.826;2023-06-22T11:47:52;8.10;;;7.20;;
81154;SDS011;70631;50.436;7.826;2023-06-22T11:50:18;8.20;;;7.40;;
81154;SDS011;70631;50.436;7.826;2023-06-22T11:52:43;8.80;;;7.78;;
81154;SDS011;70631;50.436;7.826;2023-06-22T11:55:08;9.23;;;7.70;;
81154;SDS011;70631;50.436;7.826;2023-06-22T11:57:35;8.95;;;7.63;;
81154;SDS011;70631;50.436;7.826;2023-06-22T12:00:01;10.13;;;7.60;;
81154;SDS011;70631;50.436;7.826;2023-06-22T12:02:31;7.97;;;6.82;;
81154;SDS011;70631;50.436;7.826;2023-06-22T12:04:56;8.40;;;7.50;;
81154;SDS011;70631;50.436;7.826;2023-06-22T12:07:23;8.73;;;7.82;;
81154;SDS011;70631;50.436;7.826;2023-06-22T12:09:48;8.48;;;7.57;;
81154;SDS011;70631;50.436;7.826;2023-06-22T12:12:13;8.80;;;7.90;;
81154;SDS011;70631;50.436;7.826;2023-06-22T12:14:38;9.70;;;7.73;;
81154;SDS011;70631;50.436;7.826;2023-06-22T12:17:04;10.00;;;8.57;;
81154;SDS011;70631;50.436;7.826;2023-06-22T12:19:29;8.83;;;8.00;;
81154;SDS011;70631;50.436;7.826;2023-06-22T12:21:54;9.47;;;8.33;;
81154;SDS011;70631;50.436;7.826;2023-06-22T12:24:19;10.00;;;7.97;;
81154;SDS011;70631;50.436;7.826;2023-06-22T12:26:45;9.27;;;8.38;;
81154;SDS011;70631;50.436;7.826;2023-06-22T12:29:10;8.37;;;7.40;;
81154;SDS011;70631;50.436;7.826;2023-06-22T12:31:36;9.17;;;8.03;;
81154;SDS011;70631;50.436;7.826;2023-06-22T12:34:03;7.43;;;6.72;;
81154;SDS011;70631;50.436;7.826;2023-06-22T12:36:29;10.38;;;7.88;;
81154;SDS011;70631;50.436;7.826;2023-06-22T12:38:54;8.20;;;7.50;;
81154;SDS011;70631;50.436;7.826;2023-06-22T12:41:19;7.70;;;7.00;;
81154;SDS011;70631;50.436;7.826;2023-06-22T12:43:46;10.27;;;7.63;;
81154;SDS011;70631;50.436;7.826;2023-06-22T12:46:11;7.82;;;7.07;;
81154;SDS011;70631;50.436;7.826;2023-06-22T12:48:36;7.73;;;7.10;;
81154;SDS011;70631;50.436;7.826;2023-06-22T12:51:06;11.13;;;7.78;;
81154;SDS011;70631;50.436;7.826;2023-06-22T12:53:32;9.82;;;8.82;;
81154;SDS011;70631;50.436;7.826;2023-06-22T12:55:57;10.77;;;7.80;;
81154;SDS011;70631;50.436;7.826;2023-06-22T12:58:23;9.05;;;8.15;;
81154;SDS011;70631;50.436;7.826;2023-06-22T13:00:48;8.90;;;7.90;;
81154;SDS011;70631;50.436;7.826;2023-06-22T13:03:14;9.43;;;7.72;;
81154;SDS011;70631;50.436;7.826;2023-06-22T13:05:39;8.07;;;7.27;;
81154;SDS011;70631;50.436;7.826;2023-06-22T13:08:04;8.83;;;8.03;;
81154;SDS011;70631;50.436;7.826;2023-06-22T13:10:29;8.87;;;7.97;;
81154;SDS011;70631;50.436;7.826;2023-06-22T13:12:55;8.77;;;7.60;;
81154;SDS011;70631;50.436;7.826;2023-06-22T13:15:25;15.50;;;9.02;;
81154;SDS011;70631;50.436;7.826;2023-06-22T13:17:50;9.07;;;7.57;;
81154;SDS011;70631;50.436;7.826;2023-06-22T13:20:17;10.15;;;8.05;;
81154;SDS011;70631;50.436;7.826;2023-06-22T13:22:42;9.13;;;8.23;;
81154;SDS011;70631;50.436;7.826;2023-06-22T13:25:09;9.52;;;7.47;;
81154;SDS011;70631;50.436;7.826;2023-06-22T13:27:41;9.85;;;7.47;;
81154;SDS011;70631;50.436;7.826;2023-06-22T13:30:07;9.57;;;8.27;;
81154;SDS011;70631;50.436;7.826;2023-06-22T13:32:35;9.70;;;8.68;;
81154;SDS011;70631;50.436;7.826;2023-06-22T13:35:01;9.00;;;8.13;;
81154;SDS011;70631;50.436;7.826;2023-06-22T13:37:26;10.10;;;7.73;;
81154;SDS011;70631;50.436;7.826;2023-06-22T13:39:52;9.45;;;8.40;;
81154;SDS011;70631;50.436;7.826;2023-06-22T13:42:17;9.45;;;8.20;;
81154;SDS011;70631;50.436;7.826;2023-06-22T13:44:42;9.83;;;7.93;;
81154;SDS011;70631;50.436;7.826;2023-06-22T13:47:08;10.38;;;8.30;;
81154;SDS011;70631;50.436;7.826;2023-06-22T13:49:33;8.80;;;7.90;;
81154;SDS011;70631;50.436;7.826;2023-06-22T13:51:59;12.15;;;8.48;;
81154;SDS011;70631;50.436;7.826;2023-06-22T13:54:24;10.40;;;8.38;;
81154;SDS011;70631;50.436;7.826;2023-06-22T13:56:50;16.77;;;8.30;;
81154;SDS011;70631;50.436;7.826;2023-06-22T13:59:15;11.07;;;7.43;;
81154;SDS011;70631;50.436;7.826;2023-06-22T14:01:40;10.57;;;8.27;;
81154;SDS011;70631;50.436;7.826;2023-06-22T14:04:06;11.15;;;9.02;;
81154;SDS011;70631;50.436;7.826;2023-06-22T14:06:32;9.35;;;8.48;;
81154;SDS011;70631;50.436;7.826;2023-06-22T14:08:57;9.87;;;8.37;;
81154;SDS011;70631;50.436;7.826;2023-06-22T14:11:22;11.93;;;8.05;;
81154;SDS011;70631;50.436;7.826;2023-06-22T14:13:47;10.23;;;8.17;;
81154;SDS011;70631;50.436;7.826;2023-06-22T14:16:13;9.27;;;8.13;;
81154;SDS011;70631;50.436;7.826;2023-06-22T14:18:38;12.07;;;8.68;;
81154;SDS011;70631;50.436;7.826;2023-06-22T14:21:04;11.15;;;8.30;;
81154;SDS011;70631;50.436;7.826;2023-06-22T14:23:29;31.13;;;14.47;;
81154;SDS011;70631;50.436;7.826;2023-06-22T14:25:54;17.60;;;11.03;;
81154;SDS011;70631;50.436;7.826;2023-06-22T14:28:20;27.48;;;13.23;;
81154;SDS011;70631;50.436;7.826;2023-06-22T14:30:45;13.77;;;8.67;;
81154;SDS011;70631;50.436;7.826;2023-06-22T14:33:10;15.47;;;8.70;;
81154;SDS011;70631;50.436;7.826;2023-06-22T14:35:37;15.23;;;10.25;;